createdAt,value
2023-05-18T00:00:14.448Z,11.98
2023-05-18T00:02:42.953Z,11.95
2023-05-18T00:05:11.636Z,12.03
2023-05-18T00:07:41.071Z,12.03
2023-05-18T00:10:10.756Z,12.00
2023-05-18T00:12:38.850Z,12.00
2023-05-18T00:15:09.976Z,11.99
2023-05-18T00:17:38.067Z,11.99
2023-05-18T00:20:10.318Z,12.00
2023-05-18T00:22:39.158Z,12.01
2023-05-18T00:25:07.722Z,12.01
2023-05-18T00:27:35.703Z,12.03
2023-05-18T00:30:05.736Z,12.05
2023-05-18T00:32:35.056Z,12.06
2023-05-18T00:35:02.996Z,12.09
2023-05-18T00:37:30.891Z,12.11
2023-05-18T00:39:58.810Z,12.12
2023-05-18T00:42:27.033Z,12.12
2023-05-18T00:44:55.007Z,12.12
2023-05-18T00:47:23.437Z,12.11
2023-05-18T00:49:52.733Z,12.11
2023-05-18T00:52:21.442Z,12.13
2023-05-18T00:54:50.358Z,12.13
2023-05-18T00:57:19.129Z,12.13
2023-05-18T00:59:48.115Z,12.12
2023-05-18T01:02:16.926Z,12.12
2023-05-18T01:04:44.871Z,12.11
2023-05-18T01:07:16.623Z,12.17
2023-05-18T01:09:44.758Z,12.16
2023-05-18T01:12:22.465Z,12.14
2023-05-18T01:14:55.353Z,12.13
2023-05-18T01:17:33.706Z,12.14
2023-05-18T01:20:13.104Z,12.14
2023-05-18T01:23:10.215Z,12.14
2023-05-18T01:25:49.530Z,12.12
2023-05-18T01:28:22.587Z,12.10
2023-05-18T01:30:51.919Z,12.07
2023-05-18T01:33:19.982Z,12.02
2023-05-18T01:35:49.041Z,12.05
2023-05-18T01:38:18.878Z,12.06
2023-05-18T01:40:54.231Z,12.04
2023-05-18T01:43:31.134Z,12.04
2023-05-18T01:46:06.100Z,12.04
2023-05-18T01:48:39.036Z,12.01
2023-05-18T01:51:10.901Z,11.99
2023-05-18T01:53:42.999Z,12.01
2023-05-18T01:56:13.730Z,12.01
2023-05-18T01:58:44.361Z,12.01
2023-05-18T02:01:12.876Z,12.00
2023-05-18T02:03:40.932Z,11.98
2023-05-18T02:06:09.082Z,11.98
2023-05-18T02:08:38.185Z,11.99
2023-05-18T02:11:06.180Z,11.98
2023-05-18T02:13:36.826Z,11.94
2023-05-18T02:16:06.735Z,11.98
2023-05-18T02:18:36.450Z,12.00
2023-05-18T02:21:05.118Z,11.90
2023-05-18T02:23:33.932Z,11.98
2023-05-18T02:26:02.666Z,11.99
2023-05-18T02:28:30.770Z,12.00
2023-05-18T02:31:08.136Z,12.01
2023-05-18T02:33:40.217Z,12.00
2023-05-18T02:36:12.469Z,11.99
2023-05-18T02:38:42.197Z,12.00
2023-05-18T02:41:10.608Z,11.99
2023-05-18T02:43:39.344Z,12.00
2023-05-18T02:46:10.178Z,11.98
2023-05-18T02:48:38.188Z,11.99
2023-05-18T02:51:06.357Z,12.01
2023-05-18T02:53:34.962Z,12.00
2023-05-18T02:56:09.678Z,12.00
2023-05-18T02:59:04.046Z,12.02
2023-05-18T03:01:41.072Z,12.01
2023-05-18T03:04:09.559Z,12.02
2023-05-18T03:06:42.798Z,12.01
2023-05-18T03:09:11.683Z,12.00
2023-05-18T03:11:43.261Z,12.01
2023-05-18T03:14:11.564Z,12.01
2023-05-18T03:16:40.914Z,12.01
2023-05-18T03:19:15.943Z,12.01
2023-05-18T03:21:44.076Z,12.03
2023-05-18T03:24:14.970Z,12.05
2023-05-18T03:26:45.622Z,12.06
2023-05-18T03:29:13.848Z,12.07
2023-05-18T03:31:44.033Z,12.07
2023-05-18T03:34:13.766Z,12.08
2023-05-18T03:36:47.371Z,12.12
2023-05-18T03:39:15.929Z,12.14
2023-05-18T03:41:43.865Z,12.16
2023-05-18T03:44:11.913Z,12.14
2023-05-18T03:46:39.861Z,12.16
2023-05-18T03:49:09.400Z,12.18
2023-05-18T03:51:42.070Z,12.16
2023-05-18T03:54:09.968Z,12.23
2023-05-18T03:56:38.046Z,12.20
2023-05-18T03:59:06.587Z,12.21
2023-05-18T04:01:35.316Z,12.16
2023-05-18T04:04:03.450Z,12.22
2023-05-18T04:06:35.346Z,12.24
2023-05-18T04:09:04.788Z,12.22
2023-05-18T04:11:32.934Z,12.24
2023-05-18T04:14:01.408Z,12.23
2023-05-18T04:16:29.524Z,12.25
2023-05-18T04:18:57.584Z,12.26
2023-05-18T04:21:25.625Z,12.25
2023-05-18T04:23:54.883Z,12.29
2023-05-18T04:26:22.816Z,12.31
2023-05-18T04:28:52.549Z,12.34
2023-05-18T04:31:20.493Z,12.36
2023-05-18T04:33:51.364Z,12.38
2023-05-18T04:36:21.304Z,12.36
2023-05-18T04:38:50.777Z,12.35
2023-05-18T04:41:22.225Z,12.37
2023-05-18T04:43:50.595Z,12.43
2023-05-18T04:46:18.888Z,12.51
2023-05-18T04:48:49.883Z,12.61
2023-05-18T04:51:18.122Z,12.70
2023-05-18T04:53:46.130Z,12.74
2023-05-18T04:56:15.029Z,12.78
2023-05-18T04:58:46.116Z,12.81
2023-05-18T05:01:15.367Z,12.82
2023-05-18T05:03:43.846Z,12.87
2023-05-18T05:06:15.932Z,12.92
2023-05-18T05:08:44.009Z,13.00
2023-05-18T05:11:12.646Z,13.02
2023-05-18T05:13:40.548Z,13.07
2023-05-18T05:16:09.951Z,13.13
2023-05-18T05:18:37.954Z,13.18
2023-05-18T05:21:06.484Z,13.24
2023-05-18T05:23:35.586Z,13.25
2023-05-18T05:26:03.804Z,13.29
2023-05-18T05:28:32.949Z,13.30
2023-05-18T05:31:00.877Z,13.28
2023-05-18T05:33:30.200Z,13.30
2023-05-18T05:35:58.131Z,13.32
2023-05-18T05:38:26.312Z,13.38
2023-05-18T05:40:54.270Z,13.41
2023-05-18T05:43:22.243Z,13.44
2023-05-18T05:45:51.479Z,13.50
2023-05-18T05:48:19.878Z,13.44
2023-05-18T05:50:49.745Z,13.43
2023-05-18T05:53:19.758Z,13.47
2023-05-18T05:55:48.769Z,13.44
2023-05-18T05:58:19.157Z,13.41
2023-05-18T06:00:52.300Z,13.35
2023-05-18T06:03:21.425Z,13.19
2023-05-18T06:05:51.691Z,13.32
2023-05-18T06:08:24.158Z,13.33
2023-05-18T06:10:52.774Z,13.38
2023-05-18T06:13:21.017Z,13.44
2023-05-18T06:15:51.844Z,13.49
2023-05-18T06:18:19.857Z,13.55
2023-05-18T06:20:51.135Z,13.61
2023-05-18T06:23:22.788Z,13.56
2023-05-18T06:26:02.966Z,13.43
2023-05-18T06:28:47.870Z,13.37
2023-05-18T06:31:34.947Z,13.38
2023-05-18T06:34:15.502Z,13.39
2023-05-18T06:36:44.928Z,13.43
2023-05-18T06:39:13.001Z,13.46
2023-05-18T06:41:41.114Z,13.44
2023-05-18T06:44:09.189Z,13.50
2023-05-18T06:46:37.780Z,13.62
2023-05-18T06:49:16.201Z,13.74
2023-05-18T06:51:46.404Z,13.88
2023-05-18T06:54:15.143Z,13.92
2023-05-18T06:56:43.315Z,14.01
2023-05-18T06:59:11.322Z,14.10
2023-05-18T07:01:40.059Z,14.19
2023-05-18T07:04:08.671Z,14.12
2023-05-18T07:06:36.685Z,14.20
2023-05-18T07:09:08.058Z,14.28
2023-05-18T07:11:36.073Z,14.17
2023-05-18T07:14:04.078Z,14.20
2023-05-18T07:16:32.155Z,14.10
2023-05-18T07:19:00.171Z,14.11
2023-05-18T07:21:28.145Z,14.03
2023-05-18T07:23:56.170Z,13.99
2023-05-18T07:26:26.157Z,14.03
2023-05-18T07:28:54.134Z,14.02
2023-05-18T07:31:22.595Z,14.00
2023-05-18T07:33:50.645Z,14.02
2023-05-18T07:36:18.653Z,13.98
2023-05-18T07:38:46.629Z,14.04
2023-05-18T07:41:14.528Z,14.10
2023-05-18T07:43:43.779Z,14.11
2023-05-18T07:46:11.741Z,14.19
2023-05-18T07:48:41.023Z,14.20
2023-05-18T07:51:09.230Z,14.32
2023-05-18T07:53:37.920Z,14.38
2023-05-18T07:56:07.077Z,14.40
2023-05-18T07:58:35.293Z,14.45
2023-05-18T08:01:04.950Z,14.55
2023-05-18T08:03:33.071Z,14.58
2023-05-18T08:06:01.301Z,14.66
2023-05-18T08:08:29.742Z,14.70
2023-05-18T08:10:58.316Z,14.73
2023-05-18T08:13:26.627Z,14.79
2023-05-18T08:16:09.838Z,14.90
2023-05-18T08:18:41.305Z,14.92
2023-05-18T08:21:10.232Z,15.00
2023-05-18T08:23:38.940Z,15.10
2023-05-18T08:26:08.245Z,15.18
2023-05-18T08:28:36.444Z,15.20
2023-05-18T08:31:04.418Z,15.26
2023-05-18T08:33:33.331Z,15.34
2023-05-18T08:36:02.666Z,15.46
2023-05-18T08:38:31.956Z,15.56
2023-05-18T08:41:07.126Z,15.62
2023-05-18T08:43:39.039Z,15.67
2023-05-18T08:46:12.395Z,15.68
2023-05-18T08:48:42.667Z,15.64
2023-05-18T08:51:14.272Z,15.62
2023-05-18T08:53:43.280Z,15.56
2023-05-18T08:56:12.726Z,15.56
2023-05-18T08:58:45.938Z,15.61
2023-05-18T09:01:14.932Z,15.56
2023-05-18T09:03:43.277Z,15.44
2023-05-18T09:06:12.752Z,15.36
2023-05-18T09:08:41.920Z,15.31
2023-05-18T09:11:10.021Z,15.31
2023-05-18T09:13:39.204Z,15.25
2023-05-18T09:16:08.803Z,15.23
2023-05-18T09:18:36.870Z,15.23
2023-05-18T09:21:04.983Z,15.20
2023-05-18T09:23:34.582Z,15.18
2023-05-18T09:26:04.843Z,15.24
2023-05-18T09:28:36.567Z,15.25
2023-05-18T09:31:04.963Z,15.30
2023-05-18T09:33:35.290Z,15.28
2023-05-18T09:36:05.071Z,15.40
2023-05-18T09:38:38.222Z,15.44
2023-05-18T09:41:10.795Z,15.38
2023-05-18T09:43:38.777Z,15.41
2023-05-18T09:46:10.593Z,15.42
2023-05-18T09:48:43.057Z,15.41
2023-05-18T09:51:11.916Z,15.35
2023-05-18T09:53:41.661Z,15.33
2023-05-18T09:56:12.182Z,15.34
2023-05-18T09:58:40.792Z,15.26
2023-05-18T10:01:08.738Z,15.31
2023-05-18T10:03:38.763Z,15.34
2023-05-18T10:06:08.250Z,15.37
2023-05-18T10:08:37.177Z,15.36
2023-05-18T10:11:07.420Z,15.28
2023-05-18T10:13:35.912Z,15.31
2023-05-18T10:16:05.602Z,15.41
2023-05-18T10:18:35.975Z,15.48
2023-05-18T10:21:05.945Z,15.55
2023-05-18T10:23:35.927Z,15.64
2023-05-18T10:26:09.900Z,15.60
2023-05-18T10:28:42.308Z,15.59
2023-05-18T10:31:10.734Z,15.48
2023-05-18T10:33:39.339Z,15.60
2023-05-18T10:36:08.472Z,15.61
2023-05-18T10:38:39.914Z,15.64
2023-05-18T10:41:12.642Z,15.74
2023-05-18T10:43:42.526Z,15.79
2023-05-18T10:46:10.803Z,15.76
2023-05-18T10:48:40.520Z,15.69
2023-05-18T10:51:09.276Z,15.63
2023-05-18T10:53:37.853Z,15.61
2023-05-18T10:56:07.896Z,15.66
2023-05-18T10:58:39.586Z,15.64
2023-05-18T11:01:12.508Z,15.62
2023-05-18T11:03:40.930Z,15.63
2023-05-18T11:06:10.873Z,15.64
2023-05-18T11:08:48.191Z,15.57
2023-05-18T11:11:18.896Z,15.54
2023-05-18T11:13:51.841Z,15.56
2023-05-18T11:16:20.701Z,15.47
2023-05-18T11:18:51.563Z,15.44
2023-05-18T11:21:31.278Z,15.42
2023-05-18T11:24:36.553Z,15.44
2023-05-18T11:27:13.123Z,15.49
2023-05-18T11:29:44.993Z,15.54
2023-05-18T11:32:29.727Z,15.56
2023-05-18T11:34:59.205Z,15.55
2023-05-18T11:37:49.686Z,15.59
2023-05-18T11:40:48.115Z,15.62
2023-05-18T11:43:21.789Z,15.59
2023-05-18T11:45:57.304Z,15.65
2023-05-18T11:48:29.830Z,15.71
2023-05-18T11:50:58.468Z,15.74
2023-05-18T11:53:27.696Z,15.77
2023-05-18T11:55:56.631Z,15.81
2023-05-18T11:58:26.231Z,15.84
2023-05-18T12:00:56.438Z,15.89
2023-05-18T12:03:25.896Z,15.89
2023-05-18T12:05:54.815Z,15.88
2023-05-18T12:08:29.508Z,15.91
2023-05-18T12:10:58.123Z,16.02
2023-05-18T12:13:27.346Z,16.07
2023-05-18T12:15:59.027Z,16.13
2023-05-18T12:18:29.497Z,16.13
2023-05-18T12:20:57.376Z,16.08
2023-05-18T12:23:36.951Z,16.08
2023-05-18T12:26:05.064Z,16.08
2023-05-18T12:28:32.962Z,16.04
2023-05-18T12:31:07.228Z,16.13
2023-05-18T12:33:35.336Z,16.23
2023-05-18T12:36:03.150Z,16.35
2023-05-18T12:38:32.792Z,16.50
2023-05-18T12:41:00.685Z,16.50
2023-05-18T12:43:28.609Z,16.55
2023-05-18T12:45:56.534Z,16.62
2023-05-18T12:48:26.648Z,16.67
2023-05-18T12:50:55.574Z,16.65
2023-05-18T12:53:24.094Z,16.58
2023-05-18T12:55:59.605Z,16.61
2023-05-18T12:58:27.513Z,16.66
2023-05-18T13:00:55.350Z,16.73
2023-05-18T13:03:24.341Z,16.83
2023-05-18T13:06:05.540Z,16.91
2023-05-18T13:08:34.838Z,16.90
2023-05-18T13:11:12.583Z,16.86
2023-05-18T13:13:58.969Z,16.73
2023-05-18T13:16:27.097Z,16.74
2023-05-18T13:18:59.551Z,16.69
2023-05-18T13:21:29.057Z,16.69
2023-05-18T13:23:56.987Z,16.72
2023-05-18T13:26:26.114Z,16.67
2023-05-18T13:28:56.478Z,16.43
2023-05-18T13:31:25.135Z,16.24
2023-05-18T13:33:53.216Z,16.13
2023-05-18T13:36:21.212Z,15.99
2023-05-18T13:38:52.201Z,15.92
2023-05-18T13:41:20.186Z,15.89
2023-05-18T13:43:48.029Z,15.87
2023-05-18T13:46:15.923Z,15.80
2023-05-18T13:48:43.851Z,15.76
2023-05-18T13:51:11.778Z,15.68
2023-05-18T13:53:40.889Z,15.50
2023-05-18T13:56:10.420Z,15.70
2023-05-18T13:58:38.451Z,15.73
2023-05-18T14:01:08.734Z,15.68
2023-05-18T14:03:37.725Z,15.62
2023-05-18T14:06:05.903Z,15.59
2023-05-18T14:08:33.842Z,15.63
2023-05-18T14:11:01.687Z,15.57
2023-05-18T14:13:31.017Z,15.49
2023-05-18T14:15:58.907Z,15.47
2023-05-18T14:18:26.772Z,15.42
2023-05-18T14:20:54.822Z,15.40
2023-05-18T14:23:24.371Z,15.34
2023-05-18T14:25:52.257Z,15.36
2023-05-18T14:28:20.070Z,15.41
2023-05-18T14:30:49.283Z,15.46
2023-05-18T14:33:17.121Z,15.43
2023-05-18T14:35:45.109Z,15.44
2023-05-18T14:38:12.992Z,15.40
2023-05-18T14:40:41.052Z,15.36
2023-05-18T14:43:08.923Z,15.35
2023-05-18T14:45:36.786Z,15.38
2023-05-18T14:48:06.221Z,15.44
2023-05-18T14:50:37.436Z,15.37
2023-05-18T14:53:06.350Z,15.30
2023-05-18T14:55:34.229Z,15.29
2023-05-18T14:58:04.553Z,15.25
2023-05-18T15:00:33.449Z,15.25
2023-05-18T15:03:01.921Z,15.31
2023-05-18T15:05:31.298Z,15.26
2023-05-18T15:07:59.198Z,15.13
2023-05-18T15:10:27.072Z,15.15
2023-05-18T15:12:54.930Z,15.14
2023-05-18T15:15:25.253Z,15.14
2023-05-18T15:17:54.482Z,15.14
2023-05-18T15:20:23.593Z,15.14
2023-05-18T15:22:52.883Z,15.14
2023-05-18T15:25:20.980Z,15.10
2023-05-18T15:27:49.252Z,15.08
2023-05-18T15:30:17.119Z,15.05
2023-05-18T15:32:45.420Z,15.02
2023-05-18T15:35:16.082Z,14.98
2023-05-18T15:37:43.922Z,15.03
2023-05-18T15:40:13.432Z,15.07
2023-05-18T15:42:41.286Z,15.05
2023-05-18T15:45:09.832Z,14.98
2023-05-18T15:47:37.816Z,15.02
2023-05-18T15:50:06.666Z,14.97
2023-05-18T15:52:34.572Z,14.94
2023-05-18T15:55:02.437Z,14.95
2023-05-18T15:57:31.638Z,14.90
2023-05-18T15:59:59.462Z,14.95
2023-05-18T16:02:27.381Z,14.95
2023-05-18T16:04:55.258Z,14.94
2023-05-18T16:07:23.074Z,14.93
2023-05-18T16:09:51.004Z,14.93
2023-05-18T16:12:18.832Z,14.87
2023-05-18T16:14:48.210Z,14.92
2023-05-18T16:17:16.080Z,14.91
2023-05-18T16:19:43.939Z,14.95
2023-05-18T16:22:11.819Z,14.90
2023-05-18T16:24:40.300Z,14.82
2023-05-18T16:27:08.681Z,14.76
2023-05-18T16:29:36.728Z,14.67
2023-05-18T16:32:08.149Z,14.65
2023-05-18T16:34:36.066Z,14.67
2023-05-18T16:37:03.907Z,14.65
2023-05-18T16:39:31.782Z,14.63
2023-05-18T16:41:59.609Z,14.63
2023-05-18T16:44:27.447Z,14.64
2023-05-18T16:46:55.346Z,14.62
2023-05-18T16:49:24.593Z,14.61
2023-05-18T16:51:52.901Z,14.59
2023-05-18T16:54:20.862Z,14.57
2023-05-18T16:56:48.720Z,14.55
2023-05-18T16:59:16.608Z,14.53
2023-05-18T17:01:44.570Z,14.53
2023-05-18T17:04:12.580Z,14.52
2023-05-18T17:06:42.104Z,14.49
2023-05-18T17:09:09.966Z,14.48
2023-05-18T17:11:37.887Z,14.47
2023-05-18T17:14:05.750Z,14.48
2023-05-18T17:16:40.146Z,14.45
2023-05-18T17:19:08.182Z,14.42
2023-05-18T17:21:36.243Z,14.39
2023-05-18T17:24:06.116Z,14.40
2023-05-18T17:26:33.998Z,14.42
2023-05-18T17:29:01.961Z,14.37
2023-05-18T17:31:30.494Z,14.36
2023-05-18T17:33:58.677Z,14.43
2023-05-18T17:36:26.922Z,14.50
2023-05-18T17:38:56.139Z,14.49
2023-05-18T17:41:25.990Z,14.47
2023-05-18T17:43:53.916Z,14.44
2023-05-18T17:46:21.875Z,14.40
2023-05-18T17:48:49.760Z,14.41
2023-05-18T17:51:17.659Z,14.38
2023-05-18T17:53:45.733Z,14.40
2023-05-18T17:56:13.781Z,14.41
2023-05-18T17:58:42.964Z,14.39
2023-05-18T18:01:12.166Z,14.36
2023-05-18T18:03:40.346Z,14.30
2023-05-18T18:06:08.658Z,14.28
2023-05-18T18:08:36.901Z,14.29
2023-05-18T18:11:06.322Z,14.32
2023-05-18T18:13:35.678Z,14.33
2023-05-18T18:16:05.371Z,14.33
2023-05-18T18:18:36.031Z,14.31
2023-05-18T18:21:04.222Z,14.29
2023-05-18T18:23:32.550Z,14.17
2023-05-18T18:26:00.848Z,14.26
2023-05-18T18:28:29.327Z,14.29
2023-05-18T18:30:58.111Z,14.14
2023-05-18T18:33:28.033Z,14.24
2023-05-18T18:35:57.710Z,14.15
2023-05-18T18:38:27.079Z,14.12
2023-05-18T18:40:57.753Z,14.16
2023-05-18T18:43:27.675Z,14.13
2023-05-18T18:45:57.290Z,14.11
2023-05-18T18:48:27.045Z,14.05
2023-05-18T18:50:54.959Z,14.08
2023-05-18T18:53:23.033Z,14.10
2023-05-18T18:55:51.341Z,14.05
2023-05-18T18:58:19.558Z,14.06
2023-05-18T19:00:47.469Z,14.07
2023-05-18T19:03:16.097Z,14.04
2023-05-18T19:05:45.508Z,13.99
2023-05-18T19:08:13.724Z,13.97
2023-05-18T19:10:41.662Z,13.96
2023-05-18T19:13:09.613Z,13.97
2023-05-18T19:15:38.307Z,13.99
2023-05-18T19:18:07.689Z,13.99
2023-05-18T19:20:35.887Z,14.06
2023-05-18T19:23:05.683Z,14.09
2023-05-18T19:25:33.866Z,14.06
2023-05-18T19:28:02.070Z,14.10
2023-05-18T19:30:30.029Z,14.04
2023-05-18T19:32:57.989Z,14.05
2023-05-18T19:35:25.965Z,14.09
2023-05-18T19:37:53.890Z,14.18
2023-05-18T19:40:23.185Z,14.25
2023-05-18T19:42:53.516Z,14.21
2023-05-18T19:45:21.543Z,14.27
2023-05-18T19:47:49.502Z,14.26
2023-05-18T19:50:17.614Z,14.29
2023-05-18T19:52:45.875Z,14.30
2023-05-18T19:55:13.815Z,14.21
2023-05-18T19:57:43.215Z,14.13
2023-05-18T20:00:11.964Z,14.09
2023-05-18T20:02:42.696Z,14.03
2023-05-18T20:05:12.633Z,13.97
2023-05-18T20:07:41.065Z,13.91
2023-05-18T20:10:09.001Z,13.85
2023-05-18T20:12:36.925Z,13.84
2023-05-18T20:15:08.713Z,13.81
2023-05-18T20:17:37.712Z,13.76
2023-05-18T20:20:06.166Z,13.77
2023-05-18T20:22:34.041Z,13.76
2023-05-18T20:25:05.388Z,13.77
2023-05-18T20:27:33.345Z,13.73
2023-05-18T20:30:01.289Z,13.75
2023-05-18T20:32:32.690Z,13.76
2023-05-18T20:35:00.758Z,13.76
2023-05-18T20:37:28.707Z,13.75
2023-05-18T20:39:57.398Z,13.73
2023-05-18T20:42:31.874Z,13.71
2023-05-18T20:44:59.877Z,13.72
2023-05-18T20:47:29.609Z,13.68
2023-05-18T20:49:59.305Z,13.67
2023-05-18T20:52:27.283Z,13.66
2023-05-18T20:54:55.294Z,13.67
2023-05-18T20:57:31.507Z,13.62
2023-05-18T20:59:59.429Z,13.58
2023-05-18T21:02:27.429Z,13.55
2023-05-18T21:04:57.647Z,13.52
2023-05-18T21:07:27.016Z,13.56
2023-05-18T21:09:54.937Z,13.60
2023-05-18T21:12:22.862Z,13.63
2023-05-18T21:14:50.928Z,13.60
2023-05-18T21:17:18.936Z,13.67
2023-05-18T21:19:46.832Z,13.64
2023-05-18T21:22:14.721Z,13.58
2023-05-18T21:24:43.987Z,13.58
2023-05-18T21:27:12.034Z,13.56
2023-05-18T21:29:39.972Z,13.54
2023-05-18T21:32:08.526Z,13.52
2023-05-18T21:34:36.594Z,13.52
2023-05-18T21:37:04.589Z,13.52
2023-05-18T21:39:32.523Z,13.54
2023-05-18T21:42:02.619Z,13.48
2023-05-18T21:44:30.685Z,13.42
2023-05-18T21:46:58.751Z,13.34
2023-05-18T21:49:26.674Z,13.25
2023-05-18T21:51:56.084Z,13.23
2023-05-18T21:54:24.032Z,13.22
2023-05-18T21:56:51.982Z,13.24
2023-05-18T21:59:21.448Z,13.17
2023-05-18T22:01:49.352Z,13.14
2023-05-18T22:04:18.324Z,13.13
2023-05-18T22:06:46.351Z,13.11
2023-05-18T22:09:14.332Z,13.08
2023-05-18T22:11:42.223Z,13.05
2023-05-18T22:14:10.157Z,13.07
2023-05-18T22:16:39.552Z,13.02
2023-05-18T22:19:07.618Z,13.03
2023-05-18T22:21:35.551Z,13.05
2023-05-18T22:24:03.542Z,13.05
2023-05-18T22:26:31.618Z,13.06
2023-05-18T22:28:59.641Z,13.09
2023-05-18T22:31:28.006Z,13.08
2023-05-18T22:33:57.344Z,13.07
2023-05-18T22:36:25.275Z,12.98
2023-05-18T22:38:53.242Z,12.97
2023-05-18T22:41:21.954Z,12.90
2023-05-18T22:43:49.851Z,12.85
2023-05-18T22:46:17.909Z,12.88
2023-05-18T22:48:45.901Z,12.94
2023-05-18T22:51:15.819Z,12.90
2023-05-18T22:53:44.885Z,12.78
2023-05-18T22:56:12.834Z,12.68
2023-05-18T22:58:40.728Z,12.55
2023-05-18T23:01:08.611Z,12.51
2023-05-18T23:03:36.498Z,12.55
2023-05-18T23:06:04.473Z,12.56
2023-05-18T23:08:36.998Z,12.59
2023-05-18T23:11:05.920Z,12.60
2023-05-18T23:13:37.395Z,12.70
2023-05-18T23:16:06.153Z,12.67
2023-05-18T23:18:34.153Z,12.69
2023-05-18T23:21:03.146Z,12.69
2023-05-18T23:23:31.055Z,12.72
2023-05-18T23:26:00.845Z,12.73
2023-05-18T23:28:29.776Z,12.72
2023-05-18T23:30:57.743Z,12.71
2023-05-18T23:33:26.541Z,12.65
2023-05-18T23:35:56.622Z,12.65
2023-05-18T23:38:34.850Z,12.58
2023-05-18T23:41:05.460Z,12.55
2023-05-18T23:43:33.933Z,12.52
2023-05-18T23:46:02.397Z,12.52
2023-05-18T23:48:31.001Z,12.47
2023-05-18T23:51:02.406Z,12.47
2023-05-18T23:53:31.360Z,12.47
2023-05-18T23:56:00.321Z,12.51
2023-05-18T23:58:33.053Z,12.50
